Bretagne — FNBR — position and weather

sailwx.info

Track history (hours):
 
Tides and Currents Weather Stations Pressure Air Temp Water Temp Dewpoint Dewpoint Depression Visibility Wind Speed Wind Dir Waves Ship Positions

Bretagne

Operator: Brittany Ferries

Last reported at 2014-Aug-26 23:03 UTC. Time now 2014-Aug-27 09:12 UTC.
Position N 50°19' W 001°25'.

Length 151 m; beam 27 m.

Type: Passenger vessel. MMSI: 227286000.

Date/timePositionNaut miles runAvg speedWind from/ knotsBaromVisibWave heightAir tempDewpointWater temp
2014-Aug-26 23:03N 50°19' W 001°25'714.2
2014-Aug-26 22:33N 50°24' W 001°18'1414.0
2014-Aug-26 21:34N 50°37' W 001°08'1211.8
2014-Aug-26 20:33N 50°48' W 001°07'1 0.8
2014-Aug-26 19:31N 50°49' W 001°06'0 0.0
2014-Aug-26 18:31N 50°49' W 001°06'5 5.3
2014-Aug-26 17:34N 50°44' W 001°03'9 9.3
2014-Aug-26 16:33N 50°35' W 001°08'19 1.0
2014-Aug-25 22:14N 50°20' W 001°26'812.7
2014-Aug-25 21:33N 50°27' W 001°18'1211.7
2014-Aug-25 20:33N 50°36' W 001°08'1111.2
2014-Aug-25 19:33N 50°48' W 001°07'1 1.2
2014-Aug-25 18:33N 50°49' W 001°06'0 0.0
2014-Aug-25 17:33N 50°49' W 001°06'7 6.6
2014-Aug-25 16:33N 50°42' W 001°03'31 1.7
2014-Aug-24 22:10N 50°16' W 001°30'914.2
2014-Aug-24 21:32N 50°24' W 001°21'1313.3
2014-Aug-24 20:33N 50°34' W 001°10'1111.0
2014-Aug-24 19:33N 50°45' W 001°05'4 3.8
2014-Aug-24 18:33N 50°49' W 001°06'0 0.0
2014-Aug-24 17:33N 50°49' W 001°06'4 4.5
2014-Aug-24 16:34N 50°44' W 001°04'32 1.8
2014-Aug-23 22:06N 50°16' W 001°29'815.2
2014-Aug-23 21:33N 50°23' W 001°22'1414.3
2014-Aug-23 20:33N 50°35' W 001°10'1111.2
2014-Aug-23 19:34N 50°46' W 001°05'27 1.2
2014-Aug-22 21:33N 50°22' W 001°24'1515.1
2014-Aug-22 20:33N 50°34' W 001°10'1211.6
2014-Aug-22 19:34N 50°45' W 001°05'4 3.7
2014-Aug-22 18:31N 50°49' W 001°06'0 0.0
2014-Aug-22 17:31N 50°49' W 001°06'3 3.0
2014-Aug-22 16:33N 50°46' W 001°05'1716.6
2014-Aug-22 15:33N 50°30' W 001°14'10 0.5
2014-Aug-21 21:33N 50°22' W 001°23'1514.6
2014-Aug-21 20:33N 50°34' W 001°10'1212.0
2014-Aug-21 19:33N 50°46' W 001°05'3 2.7
2014-Aug-21 18:32N 50°49' W 001°06'0 0.0
2014-Aug-21 17:32N 50°49' W 001°06'3 3.3
2014-Aug-21 16:34N 50°45' W 001°05'29 1.6
2014-Aug-20 22:17N 50°20' W 001°25'1216.7
2014-Aug-20 21:34N 50°30' W 001°14'1515.3
2014-Aug-20 20:34N 50°43' W 001°03'6 5.3
2014-Aug-20 19:31N 50°49' W 001°06'0 0.0
2014-Aug-20 18:31N 50°49' W 001°06'0 0.0
2014-Aug-20 17:33N 50°49' W 001°06'3 2.7
2014-Aug-20 16:34N 50°46' W 001°05'1615.8
2014-Aug-20 15:33N 50°31' W 001°12'10 0.6
2014-Aug-19 21:20N 50°23' W 001°22'1316.3
2014-Aug-19 20:33N 50°33' W 001°11'1312.7
2014-Aug-19 19:33N 50°46' W 001°05'3 3.1
2014-Aug-19 18:32N 50°49' W 001°06'0 0.0
2014-Aug-19 17:32N 50°49' W 001°06'4 3.9
2014-Aug-19 16:33N 50°45' W 001°05'1514.5
2014-Aug-19 15:33N 50°31' W 001°12'12 0.7
2014-Aug-18 21:33N 50°22' W 001°25'1716.7
2014-Aug-18 20:34N 50°35' W 001°09'1212.1
2014-Aug-18 19:33N 50°47' W 001°07'1 1.4
2014-Aug-18 18:33N 50°49' W 001°06'0 0.0
2014-Aug-18 17:33N 50°49' W 001°06'6 5.9
2014-Aug-18 16:33N 50°43' W 001°03'6 0.3
2014-Aug-17 18:32N 50°49' W 001°06'0 0.0
2014-Aug-17 17:32N 50°49' W 001°06'3 2.9
2014-Aug-17 16:33N 50°46' W 001°05'1614.7
2014-Aug-17 15:30N 50°31' W 001°13'  
Track history (hours):
 
Tides and Currents Weather Stations Pressure Air Temp Water Temp Dewpoint Dewpoint Depression Visibility Wind Speed Wind Dir Waves Ship Positions

Bretagne

Operator: Brittany Ferries

Last reported at 2014-Aug-26 23:03 UTC. Time now 2014-Aug-27 09:12 UTC.
Position N 50°19' W 001°25'.

Length 151 m; beam 27 m.

Type: Passenger vessel. MMSI: 227286000.

Date/timePositionNaut miles runAvg speedWind from/ knotsBaromVisibWave heightAir tempDewpointWater temp
2014-Aug-26 23:03N 50°19' W 001°25'714.2
2014-Aug-26 22:33N 50°24' W 001°18'1414.0
2014-Aug-26 21:34N 50°37' W 001°08'1211.8
2014-Aug-26 20:33N 50°48' W 001°07'1 0.8
2014-Aug-26 19:31N 50°49' W 001°06'0 0.0
2014-Aug-26 18:31N 50°49' W 001°06'5 5.3
2014-Aug-26 17:34N 50°44' W 001°03'9 9.3
2014-Aug-26 16:33N 50°35' W 001°08'19 1.0
2014-Aug-25 22:14N 50°20' W 001°26'812.7
2014-Aug-25 21:33N 50°27' W 001°18'1211.7
2014-Aug-25 20:33N 50°36' W 001°08'1111.2
2014-Aug-25 19:33N 50°48' W 001°07'1 1.2
2014-Aug-25 18:33N 50°49' W 001°06'0 0.0
2014-Aug-25 17:33N 50°49' W 001°06'7 6.6
2014-Aug-25 16:33N 50°42' W 001°03'31 1.7
2014-Aug-24 22:10N 50°16' W 001°30'914.2
2014-Aug-24 21:32N 50°24' W 001°21'1313.3
2014-Aug-24 20:33N 50°34' W 001°10'1111.0
2014-Aug-24 19:33N 50°45' W 001°05'4 3.8
2014-Aug-24 18:33N 50°49' W 001°06'0 0.0
2014-Aug-24 17:33N 50°49' W 001°06'4 4.5
2014-Aug-24 16:34N 50°44' W 001°04'32 1.8
2014-Aug-23 22:06N 50°16' W 001°29'815.2
2014-Aug-23 21:33N 50°23' W 001°22'1414.3
2014-Aug-23 20:33N 50°35' W 001°10'1111.2
2014-Aug-23 19:34N 50°46' W 001°05'27 1.2
2014-Aug-22 21:33N 50°22' W 001°24'1515.1
2014-Aug-22 20:33N 50°34' W 001°10'1211.6
2014-Aug-22 19:34N 50°45' W 001°05'4 3.7
2014-Aug-22 18:31N 50°49' W 001°06'0 0.0
2014-Aug-22 17:31N 50°49' W 001°06'3 3.0
2014-Aug-22 16:33N 50°46' W 001°05'1716.6
2014-Aug-22 15:33N 50°30' W 001°14'10 0.5
2014-Aug-21 21:33N 50°22' W 001°23'1514.6
2014-Aug-21 20:33N 50°34' W 001°10'1212.0
2014-Aug-21 19:33N 50°46' W 001°05'3 2.7
2014-Aug-21 18:32N 50°49' W 001°06'0 0.0
2014-Aug-21 17:32N 50°49' W 001°06'3 3.3
2014-Aug-21 16:34N 50°45' W 001°05'29 1.6
2014-Aug-20 22:17N 50°20' W 001°25'1216.7
2014-Aug-20 21:34N 50°30' W 001°14'1515.3
2014-Aug-20 20:34N 50°43' W 001°03'6 5.3
2014-Aug-20 19:31N 50°49' W 001°06'0 0.0
2014-Aug-20 18:31N 50°49' W 001°06'0 0.0
2014-Aug-20 17:33N 50°49' W 001°06'3 2.7
2014-Aug-20 16:34N 50°46' W 001°05'1615.8
2014-Aug-20 15:33N 50°31' W 001°12'10 0.6
2014-Aug-19 21:20N 50°23' W 001°22'1316.3
2014-Aug-19 20:33N 50°33' W 001°11'1312.7
2014-Aug-19 19:33N 50°46' W 001°05'3 3.1
2014-Aug-19 18:32N 50°49' W 001°06'0 0.0
2014-Aug-19 17:32N 50°49' W 001°06'4 3.9
2014-Aug-19 16:33N 50°45' W 001°05'1514.5
2014-Aug-19 15:33N 50°31' W 001°12'12 0.7
2014-Aug-18 21:33N 50°22' W 001°25'1716.7
2014-Aug-18 20:34N 50°35' W 001°09'1212.1
2014-Aug-18 19:33N 50°47' W 001°07'1 1.4
2014-Aug-18 18:33N 50°49' W 001°06'0 0.0
2014-Aug-18 17:33N 50°49' W 001°06'6 5.9
2014-Aug-18 16:33N 50°43' W 001°03'6 0.3
2014-Aug-17 18:32N 50°49' W 001°06'0 0.0
2014-Aug-17 17:32N 50°49' W 001°06'3 2.9
2014-Aug-17 16:33N 50°46' W 001°05'1614.7
2014-Aug-17 15:30N 50°31' W 001°13'  

Dump ship's entire track history